createdAt,value
2018-08-13T00:00:03.867Z,97376.97
2018-08-13T00:02:35.634Z,97377.41
2018-08-13T00:05:06.873Z,97375.73
2018-08-13T00:07:37.705Z,97371.47
2018-08-13T00:10:09.438Z,97372.40
2018-08-13T00:12:41.584Z,97365.42
2018-08-13T00:15:12.807Z,97360.34
2018-08-13T00:17:44.737Z,97351.08
2018-08-13T00:20:16.849Z,97355.98
2018-08-13T00:22:48.961Z,97348.80
2018-08-13T00:25:25.520Z,97352.77
2018-08-13T00:27:57.267Z,97344.34
2018-08-13T00:30:28.466Z,97347.47
2018-08-13T00:35:31.899Z,97344.66
2018-08-13T00:38:00.928Z,97342.07
2018-08-13T00:43:05.084Z,97339.47
2018-08-13T00:45:34.337Z,97340.46
2018-08-13T00:48:03.574Z,97336.80
2018-08-13T00:53:07.425Z,97338.78
2018-08-13T00:55:36.775Z,97335.52
2018-08-13T00:58:06.167Z,97347.44
2018-08-13T01:00:35.197Z,97348.59
2018-08-13T01:03:04.606Z,97344.95
2018-08-13T01:05:33.678Z,97341.41
2018-08-13T01:08:03.349Z,97337.23
2018-08-13T01:10:32.644Z,97332.00
2018-08-13T01:13:01.627Z,97334.05
2018-08-13T01:15:30.660Z,97333.08
2018-08-13T01:17:59.803Z,97323.67
2018-08-13T01:20:28.772Z,97322.96
2018-08-13T01:22:57.780Z,97322.11
2018-08-13T01:25:26.929Z,97314.17
2018-08-13T01:27:56.120Z,97311.89
2018-08-13T01:30:25.263Z,97313.88
2018-08-13T01:32:54.367Z,97309.02
2018-08-13T01:35:23.275Z,97308.25
2018-08-13T01:37:52.271Z,97297.67
2018-08-13T01:40:21.529Z,97296.30
2018-08-13T01:42:50.583Z,97293.29
2018-08-13T01:45:19.700Z,97289.78
2018-08-13T01:47:48.736Z,97293.88
2018-08-13T01:50:17.975Z,97288.39
2018-08-13T01:52:47.135Z,97286.14
2018-08-13T01:55:16.262Z,97284.33
2018-08-13T01:57:45.262Z,97275.91
2018-08-13T02:00:16.486Z,97277.51
2018-08-13T02:02:45.483Z,97274.27
2018-08-13T02:05:14.518Z,97268.04
2018-08-13T02:07:43.881Z,97273.11
2018-08-13T02:10:13.891Z,97274.54
2018-08-13T02:12:43.746Z,97268.48
2018-08-13T02:15:13.970Z,97269.70
2018-08-13T02:17:43.821Z,97258.72
2018-08-13T02:20:13.895Z,97258.07
2018-08-13T02:22:44.011Z,97257.00
2018-08-13T02:25:14.467Z,97255.22
2018-08-13T02:27:44.318Z,97250.00
2018-08-13T02:30:14.901Z,97247.87
2018-08-13T02:32:44.344Z,97245.43
2018-08-13T02:35:14.415Z,97242.61
2018-08-13T02:37:44.474Z,97243.70
2018-08-13T02:40:14.511Z,97232.63
2018-08-13T02:42:44.573Z,97238.63
2018-08-13T02:45:14.615Z,97231.40
2018-08-13T02:50:20.039Z,97229.29
2018-08-13T02:52:49.261Z,97227.84
2018-08-13T02:55:18.308Z,97226.07
2018-08-13T02:57:47.241Z,97228.41
2018-08-13T03:00:16.184Z,97226.28
2018-08-13T03:02:49.024Z,97228.62
2018-08-13T03:05:17.931Z,97226.87
2018-08-13T03:07:47.551Z,97230.43
2018-08-13T03:10:17.224Z,97234.70
2018-08-13T03:12:46.251Z,97224.94
2018-08-13T03:15:16.058Z,97224.34
2018-08-13T03:17:45.474Z,97220.85
2018-08-13T03:20:15.430Z,97225.00
2018-08-13T03:22:48.599Z,97221.74
2018-08-13T03:25:20.468Z,97225.89
2018-08-13T03:27:52.116Z,97218.27
2018-08-13T03:30:24.364Z,97221.77
2018-08-13T03:32:57.873Z,97216.08
2018-08-13T03:35:30.061Z,97217.46
2018-08-13T03:38:01.650Z,97217.78
2018-08-13T03:40:33.254Z,97217.31
2018-08-13T03:43:06.073Z,97223.69
2018-08-13T03:45:37.090Z,97223.39
2018-08-13T03:48:08.511Z,97217.52
2018-08-13T03:50:41.660Z,97218.76
2018-08-13T03:53:15.685Z,97219.16
2018-08-13T03:55:47.784Z,97221.19
2018-08-13T03:58:20.020Z,97217.09
2018-08-13T04:00:51.965Z,97215.33
2018-08-13T04:03:22.803Z,97213.31
2018-08-13T04:05:55.044Z,97210.14
2018-08-13T04:08:27.400Z,97216.02
2018-08-13T04:10:59.273Z,97209.02
2018-08-13T04:13:31.152Z,97212.25
2018-08-13T04:16:06.628Z,97202.70
2018-08-13T04:18:38.390Z,97203.02
2018-08-13T04:21:10.224Z,97206.64
2018-08-13T04:23:42.571Z,97200.02
2018-08-13T04:26:13.264Z,97198.63
2018-08-13T04:28:45.086Z,97200.30
2018-08-13T04:36:28.662Z,97194.03
2018-08-13T04:38:59.193Z,97189.34
2018-08-13T04:41:30.687Z,97198.13
2018-08-13T04:44:01.661Z,97196.20
2018-08-13T04:46:34.102Z,97201.73
2018-08-13T04:49:04.932Z,97198.60
2018-08-13T04:51:35.646Z,97193.94
2018-08-13T04:54:05.894Z,97184.09
2018-08-13T04:56:37.184Z,97183.09
2018-08-13T04:59:09.394Z,97175.85
2018-08-13T05:01:44.542Z,97174.59
2018-08-13T05:04:15.754Z,97183.17
2018-08-13T05:06:47.428Z,97189.61
2018-08-13T05:09:21.305Z,97190.50
2018-08-13T05:11:54.107Z,97183.77
2018-08-13T05:14:25.420Z,97181.90
2018-08-13T05:16:58.491Z,97179.23
2018-08-13T05:19:29.419Z,97180.85
2018-08-13T05:22:03.236Z,97182.69
2018-08-13T05:24:38.069Z,97181.83
2018-08-13T05:27:09.819Z,97181.51
2018-08-13T05:29:41.053Z,97182.67
2018-08-13T05:32:12.320Z,97185.84
2018-08-13T05:34:42.508Z,97186.04
2018-08-13T05:37:13.953Z,97183.33
2018-08-13T05:39:45.434Z,97180.23
2018-08-13T05:42:19.295Z,97177.89
2018-08-13T05:44:49.996Z,97174.38
2018-08-13T05:47:24.044Z,97176.92
2018-08-13T05:49:55.913Z,97177.34
2018-08-13T05:52:28.440Z,97177.72
2018-08-13T05:55:01.464Z,97178.97
2018-08-13T05:57:35.341Z,97174.26
2018-08-13T06:00:07.148Z,97173.30
2018-08-13T06:02:41.520Z,97173.33
2018-08-13T06:05:13.393Z,97176.95
2018-08-13T06:07:45.840Z,97175.89
2018-08-13T06:10:17.452Z,97172.53
2018-08-13T06:12:49.120Z,97171.93
2018-08-13T06:15:20.839Z,97167.91
2018-08-13T06:17:57.003Z,97159.52
2018-08-13T06:20:27.725Z,97159.64
2018-08-13T06:23:00.849Z,97158.09
2018-08-13T06:25:31.632Z,97150.28
2018-08-13T06:28:01.456Z,97150.97
2018-08-13T06:30:33.286Z,97148.86
2018-08-13T06:33:02.198Z,97150.08
2018-08-13T06:35:33.120Z,97158.41
2018-08-13T06:38:04.342Z,97157.23
2018-08-13T06:40:37.932Z,97156.08
2018-08-13T06:43:10.581Z,97162.77
2018-08-13T06:45:46.440Z,97153.62
2018-08-13T06:48:21.011Z,97156.11
2018-08-13T06:50:53.641Z,97152.17
2018-08-13T06:53:27.386Z,97149.87
2018-08-13T06:56:00.246Z,97152.94
2018-08-13T06:58:31.734Z,97153.22
2018-08-13T07:01:01.853Z,97156.62
2018-08-13T07:03:33.644Z,97151.67
2018-08-13T07:08:40.724Z,97145.25
2018-08-13T07:11:19.489Z,97150.31
2018-08-13T07:13:50.763Z,97139.64
2018-08-13T07:16:23.871Z,97145.43
2018-08-13T07:18:56.196Z,97138.47
2018-08-13T07:21:27.570Z,97141.39
2018-08-13T07:23:59.723Z,97135.36
2018-08-13T07:26:30.256Z,97141.97
2018-08-13T07:29:01.729Z,97142.97
2018-08-13T07:31:32.342Z,97131.53
2018-08-13T07:34:03.907Z,97135.90
2018-08-13T07:36:35.856Z,97134.63
2018-08-13T07:39:12.401Z,97126.31
2018-08-13T07:41:43.742Z,97125.17
2018-08-13T07:44:14.932Z,97123.64
2018-08-13T07:46:47.809Z,97125.92
2018-08-13T07:49:19.993Z,97132.61
2018-08-13T07:51:52.435Z,97127.71
2018-08-13T07:54:21.383Z,97120.13
2018-08-13T07:56:56.484Z,97115.86
2018-08-13T07:59:28.542Z,97118.87
2018-08-13T08:01:59.997Z,97119.55
2018-08-13T08:04:33.036Z,97122.45
2018-08-13T08:07:04.999Z,97121.94
2018-08-13T08:09:33.862Z,97122.86
2018-08-13T08:12:02.750Z,97122.63
2018-08-13T08:14:31.897Z,97116.62
2018-08-13T08:17:00.989Z,97121.55
2018-08-13T08:19:30.142Z,97122.52
2018-08-13T08:21:59.193Z,97121.98
2018-08-13T08:24:28.214Z,97121.30
2018-08-13T08:26:57.192Z,97120.87
2018-08-13T08:29:26.782Z,97121.46
2018-08-13T08:31:56.522Z,97126.95
2018-08-13T08:34:26.980Z,97126.46
2018-08-13T08:36:57.208Z,97124.97
2018-08-13T08:39:26.831Z,97115.41
2018-08-13T08:44:31.872Z,97115.62
2018-08-13T08:47:00.971Z,97111.47
2018-08-13T08:49:30.046Z,97113.02
2018-08-13T08:51:59.073Z,97110.91
2018-08-13T08:54:28.444Z,97109.46
2018-08-13T08:56:57.678Z,97113.70
2018-08-13T08:59:27.177Z,97107.41
2018-08-13T09:01:56.922Z,97102.65
2018-08-13T09:04:27.079Z,97101.79
2018-08-13T09:06:57.482Z,97107.16
2018-08-13T09:09:27.952Z,97110.77
2018-08-13T09:11:56.931Z,97105.02
2018-08-13T09:14:26.990Z,97105.06
2018-08-13T09:16:57.156Z,97102.47
2018-08-13T09:19:38.299Z,97101.20
2018-08-13T09:22:19.421Z,97097.63
2018-08-13T09:24:59.871Z,97102.88
2018-08-13T09:27:39.923Z,97103.55
2018-08-13T09:30:19.989Z,97097.06
2018-08-13T09:33:00.103Z,97084.02
2018-08-13T09:35:33.784Z,97078.44
2018-08-13T09:38:02.848Z,97077.28
2018-08-13T09:40:32.917Z,97073.32
2018-08-13T09:43:02.107Z,97074.91
2018-08-13T09:45:31.186Z,97073.97
2018-08-13T09:48:00.193Z,97074.34
2018-08-13T09:50:29.329Z,97073.80
2018-08-13T09:52:58.622Z,97067.56
2018-08-13T09:55:28.520Z,97065.91
2018-08-13T09:57:57.929Z,97069.03
2018-08-13T10:00:32.714Z,97062.61
2018-08-13T10:03:01.636Z,97067.38
2018-08-13T10:05:30.673Z,97065.23
2018-08-13T10:07:59.738Z,97065.52
2018-08-13T10:13:03.231Z,97061.86
2018-08-13T10:15:32.251Z,97054.70
2018-08-13T10:18:01.421Z,97054.17
2018-08-13T10:20:30.476Z,97045.06
2018-08-13T10:22:59.961Z,97051.21
2018-08-13T10:25:28.956Z,97054.92
2018-08-13T10:27:59.017Z,97044.95
2018-08-13T10:30:28.081Z,97048.41
2018-08-13T10:32:57.860Z,97052.81
2018-08-13T10:35:28.114Z,97050.94
2018-08-13T10:37:58.011Z,97050.56
2018-08-13T10:40:31.524Z,97048.52
2018-08-13T10:43:00.564Z,97044.84
2018-08-13T10:45:30.202Z,97040.28
2018-08-13T10:47:59.199Z,97039.25
2018-08-13T10:50:28.635Z,97035.34
2018-08-13T10:53:01.991Z,97040.26
2018-08-13T10:55:31.238Z,97037.72
2018-08-13T10:58:00.218Z,97037.28
2018-08-13T11:03:04.997Z,97035.74
2018-08-13T11:05:34.226Z,97035.32
2018-08-13T11:08:03.799Z,97030.81
2018-08-13T11:10:32.831Z,97019.36
2018-08-13T11:13:02.678Z,97019.30
2018-08-13T11:15:31.671Z,97019.16
2018-08-13T11:18:00.905Z,97011.86
2018-08-13T11:20:29.891Z,97012.98
2018-08-13T11:22:58.959Z,97006.30
2018-08-13T11:25:28.525Z,97008.38
2018-08-13T11:27:58.440Z,97003.16
2018-08-13T11:30:28.459Z,97001.48
2018-08-13T11:32:58.856Z,96995.51
2018-08-13T11:35:28.930Z,96993.73
2018-08-13T11:37:59.130Z,96991.27
2018-08-13T11:43:03.861Z,96985.23
2018-08-13T11:45:32.866Z,96979.73
2018-08-13T11:48:01.951Z,96983.42
2018-08-13T11:50:31.018Z,96970.70
2018-08-13T11:53:00.502Z,96971.41
2018-08-13T11:55:29.731Z,96966.13
2018-08-13T11:57:58.761Z,96962.99
2018-08-13T12:00:29.193Z,96962.42
2018-08-13T12:05:34.838Z,96959.75
2018-08-13T12:08:03.912Z,96967.81
2018-08-13T12:10:32.902Z,96964.13
2018-08-13T12:13:01.927Z,96960.10
2018-08-13T12:15:30.829Z,96958.41
2018-08-13T12:18:00.068Z,96960.91
2018-08-13T12:20:36.293Z,96955.60
2018-08-13T12:23:05.225Z,96950.65
2018-08-13T12:25:34.224Z,96950.39
2018-08-13T12:28:03.415Z,96946.20
2018-08-13T12:30:32.476Z,96943.61
2018-08-13T12:33:01.700Z,96943.09
2018-08-13T12:38:04.989Z,96935.28
2018-08-13T12:40:33.987Z,96926.62
2018-08-13T12:43:03.034Z,96932.50
2018-08-13T12:45:32.167Z,96926.62
2018-08-13T12:48:01.100Z,96924.99
2018-08-13T12:50:30.377Z,96926.19
2018-08-13T12:52:59.309Z,96920.27
2018-08-13T12:55:28.329Z,96924.19
2018-08-13T12:57:57.638Z,96905.74
2018-08-13T13:05:35.181Z,96904.55
2018-08-13T13:08:03.956Z,96904.74
2018-08-13T13:10:33.296Z,96902.60
2018-08-13T13:13:02.881Z,96896.91
2018-08-13T13:15:31.980Z,96894.99
2018-08-13T13:18:01.019Z,96884.54
2018-08-13T13:20:30.234Z,96886.74
2018-08-13T13:23:00.411Z,96883.71
2018-08-13T13:25:29.483Z,96877.59
2018-08-13T13:27:58.481Z,96882.19
2018-08-13T13:30:27.453Z,96877.20
2018-08-13T13:32:56.785Z,96868.03
2018-08-13T13:35:25.789Z,96864.43
2018-08-13T13:37:54.890Z,96868.42
2018-08-13T13:40:23.998Z,96866.01
2018-08-13T13:42:53.084Z,96865.91
2018-08-13T13:45:22.070Z,96847.85
2018-08-13T13:47:51.012Z,96856.14
2018-08-13T13:52:57.241Z,96850.00
2018-08-13T13:55:26.218Z,96847.64
2018-08-13T13:57:55.136Z,96847.50
2018-08-13T14:00:24.119Z,96840.73
2018-08-13T14:02:53.291Z,96835.52
2018-08-13T14:05:22.176Z,96830.09
2018-08-13T14:07:51.028Z,96833.25
2018-08-13T14:10:21.320Z,96832.90
2018-08-13T14:12:50.289Z,96822.83
2018-08-13T14:15:20.711Z,96825.85
2018-08-13T14:17:50.067Z,96821.38
2018-08-13T14:20:20.913Z,96812.05
2018-08-13T14:22:49.932Z,96806.64
2018-08-13T14:25:19.357Z,96814.92
2018-08-13T14:27:48.459Z,96810.31
2018-08-13T14:30:19.981Z,96805.20
2018-08-13T14:32:49.429Z,96797.30
2018-08-13T14:35:19.833Z,96797.27
2018-08-13T14:37:49.099Z,96791.53
2018-08-13T14:40:18.068Z,96790.91
2018-08-13T14:42:47.031Z,96784.61
2018-08-13T14:45:18.370Z,96782.14
2018-08-13T14:47:48.943Z,96776.50
2018-08-13T14:50:18.077Z,96778.52
2018-08-13T14:52:48.083Z,96772.88
2018-08-13T14:55:18.508Z,96770.41
2018-08-13T14:57:47.808Z,96763.99
2018-08-13T15:00:21.724Z,96762.89
2018-08-13T15:02:51.060Z,96757.41
2018-08-13T15:05:19.984Z,96758.72
2018-08-13T15:07:48.957Z,96749.14
2018-08-13T15:10:19.802Z,96750.50
2018-08-13T15:12:48.941Z,96749.31
2018-08-13T15:15:17.928Z,96742.61
2018-08-13T15:17:47.120Z,96747.27
2018-08-13T15:20:26.329Z,96743.23
2018-08-13T15:22:55.372Z,96739.84
2018-08-13T15:25:28.468Z,96731.20
2018-08-13T15:27:57.337Z,96728.78
2018-08-13T15:30:26.988Z,96725.33
2018-08-13T15:32:56.094Z,96719.53
2018-08-13T15:35:25.145Z,96725.45
2018-08-13T15:37:54.071Z,96712.53
2018-08-13T15:40:23.042Z,96717.06
2018-08-13T15:42:52.121Z,96709.55
2018-08-13T15:45:23.055Z,96714.63
2018-08-13T15:47:52.406Z,96703.38
2018-08-13T15:50:23.624Z,96703.94
2018-08-13T15:52:53.089Z,96697.31
2018-08-13T15:55:22.016Z,96692.94
2018-08-13T15:57:52.096Z,96693.00
2018-08-13T16:00:26.162Z,96691.35
2018-08-13T16:02:55.299Z,96685.75
2018-08-13T16:05:24.649Z,96687.16
2018-08-13T16:07:54.038Z,96692.27
2018-08-13T16:12:57.866Z,96687.66
2018-08-13T16:15:27.309Z,96690.61
2018-08-13T16:17:56.702Z,96688.69
2018-08-13T16:20:25.587Z,96689.29
2018-08-13T16:22:54.695Z,96686.41
2018-08-13T16:25:24.088Z,96686.78
2018-08-13T16:27:53.228Z,96688.51
2018-08-13T16:30:25.678Z,96690.44
2018-08-13T16:32:54.752Z,96687.33
2018-08-13T16:35:24.411Z,96686.39
2018-08-13T16:37:55.922Z,96681.12
2018-08-13T16:40:26.064Z,96682.16
2018-08-13T16:42:55.689Z,96687.59
2018-08-13T16:45:25.555Z,96685.87
2018-08-13T16:47:54.474Z,96691.84
2018-08-13T16:50:26.214Z,96689.33
2018-08-13T16:52:55.563Z,96690.36
2018-08-13T16:55:24.837Z,96690.83
2018-08-13T16:57:53.868Z,96689.45
2018-08-13T17:00:25.163Z,96688.33
2018-08-13T17:02:54.905Z,96681.34
2018-08-13T17:05:25.440Z,96686.99
2018-08-13T17:07:55.279Z,96685.15
2018-08-13T17:10:26.313Z,96688.23
2018-08-13T17:12:55.912Z,96687.03
2018-08-13T17:15:25.936Z,96676.23
2018-08-13T17:17:56.535Z,96677.44
2018-08-13T17:20:31.108Z,96680.52
2018-08-13T17:25:34.571Z,96681.19
2018-08-13T17:28:04.713Z,96680.84
2018-08-13T17:30:33.868Z,96682.84
2018-08-13T17:33:02.777Z,96676.63
2018-08-13T17:35:33.762Z,96671.89
2018-08-13T17:38:03.520Z,96672.00
2018-08-13T17:40:32.629Z,96672.66
2018-08-13T17:43:01.626Z,96678.17
2018-08-13T17:45:32.566Z,96681.88
2018-08-13T17:48:01.758Z,96677.97
2018-08-13T17:50:32.321Z,96681.36
2018-08-13T17:53:02.974Z,96677.72
2018-08-13T17:55:34.937Z,96674.70
2018-08-13T17:58:05.405Z,96668.31
2018-08-13T18:00:35.348Z,96675.91
2018-08-13T18:03:05.196Z,96673.66
2018-08-13T18:05:35.250Z,96673.42
2018-08-13T18:08:06.431Z,96673.47
2018-08-13T18:10:36.507Z,96681.64
2018-08-13T18:13:08.221Z,96684.25
2018-08-13T18:15:38.774Z,96684.37
2018-08-13T18:18:08.765Z,96685.41
2018-08-13T18:20:39.002Z,96678.88
2018-08-13T18:23:09.909Z,96681.97
2018-08-13T18:25:40.078Z,96689.09
2018-08-13T18:28:10.041Z,96687.15
2018-08-13T18:30:41.029Z,96686.78
2018-08-13T18:33:11.803Z,96693.13
2018-08-13T18:35:41.887Z,96688.45
2018-08-13T18:38:11.883Z,96682.38
2018-08-13T18:40:41.948Z,96688.02
2018-08-13T18:43:11.965Z,96685.77
2018-08-13T18:45:41.976Z,96688.55
2018-08-13T18:48:12.508Z,96686.05
2018-08-13T18:53:25.115Z,96692.43
2018-08-13T18:55:55.382Z,96692.17
2018-08-13T18:58:26.274Z,96700.14
2018-08-13T19:00:56.651Z,96705.82
2018-08-13T19:03:27.465Z,96707.64
2018-08-13T19:05:57.718Z,96706.78
2018-08-13T19:08:27.964Z,96703.65
2018-08-13T19:10:58.349Z,96716.00
2018-08-13T19:13:28.476Z,96711.50
2018-08-13T19:15:59.340Z,96714.34
2018-08-13T19:18:30.821Z,96719.91
2018-08-13T19:21:03.544Z,96721.71
2018-08-13T19:23:35.724Z,96723.28
2018-08-13T19:26:08.584Z,96722.17
2018-08-13T19:28:39.449Z,96724.78
2018-08-13T19:31:11.366Z,96723.01
2018-08-13T19:33:44.104Z,96725.78
2018-08-13T19:36:15.919Z,96725.14
2018-08-13T19:38:51.706Z,96732.45
2018-08-13T19:41:23.660Z,96736.20
2018-08-13T19:43:58.417Z,96738.42
2018-08-13T19:46:31.157Z,96739.14
2018-08-13T19:49:04.471Z,96738.31
2018-08-13T19:51:36.782Z,96736.07
2018-08-13T19:54:08.287Z,96740.74
2018-08-13T19:56:39.811Z,96741.44
2018-08-13T19:59:10.668Z,96740.02
2018-08-13T20:01:41.727Z,96746.77
2018-08-13T20:04:14.581Z,96737.78
2018-08-13T20:06:47.063Z,96734.19
2018-08-13T20:09:18.487Z,96738.87
2018-08-13T20:11:53.775Z,96736.45
2018-08-13T20:14:25.984Z,96736.41
2018-08-13T20:16:57.241Z,96736.59
2018-08-13T20:19:28.331Z,96735.01
2018-08-13T20:21:58.358Z,96740.41
2018-08-13T20:24:30.534Z,96732.38
2018-08-13T20:27:01.214Z,96736.03
2018-08-13T20:29:32.312Z,96743.16
2018-08-13T20:32:03.354Z,96741.45
2018-08-13T20:34:33.632Z,96748.24
2018-08-13T20:37:03.917Z,96747.56
2018-08-13T20:39:34.835Z,96747.94
2018-08-13T20:42:05.180Z,96753.70
2018-08-13T20:44:35.594Z,96758.42
2018-08-13T20:47:06.456Z,96754.92
2018-08-13T20:49:36.716Z,96759.08
2018-08-13T20:52:06.817Z,96752.43
2018-08-13T20:54:38.688Z,96760.72
2018-08-13T20:57:08.698Z,96752.34
2018-08-13T20:59:38.769Z,96757.18
2018-08-13T21:02:08.894Z,96756.02
2018-08-13T21:04:40.170Z,96754.62
2018-08-13T21:07:11.444Z,96755.91
2018-08-13T21:09:41.255Z,96754.95
2018-08-13T21:12:11.560Z,96748.54
2018-08-13T21:14:42.593Z,96748.95
2018-08-13T21:17:12.370Z,96749.34
2018-08-13T21:19:42.339Z,96751.21
2018-08-13T21:22:14.754Z,96746.79
2018-08-13T21:24:45.937Z,96742.36
2018-08-13T21:27:18.312Z,96739.36
2018-08-13T21:29:53.415Z,96739.27
2018-08-13T21:32:32.614Z,96736.86
2018-08-13T21:35:06.294Z,96736.22
2018-08-13T21:37:37.575Z,96745.09
2018-08-13T21:40:16.021Z,96741.23
2018-08-13T21:42:47.619Z,96741.24
2018-08-13T21:45:19.283Z,96737.45
2018-08-13T21:47:50.599Z,96748.05
2018-08-13T21:50:23.801Z,96746.37
2018-08-13T21:52:55.211Z,96741.60
2018-08-13T21:55:26.741Z,96746.26
2018-08-13T21:57:59.044Z,96756.70
2018-08-13T22:00:32.985Z,96760.16
2018-08-13T22:03:05.113Z,96761.75
2018-08-13T22:05:35.951Z,96768.55
2018-08-13T22:08:07.418Z,96768.78
2018-08-13T22:10:45.115Z,96772.13
2018-08-13T22:13:16.102Z,96778.98
2018-08-13T22:15:47.836Z,96775.44
2018-08-13T22:18:19.095Z,96775.78
2018-08-13T22:20:52.349Z,96772.92
2018-08-13T22:23:24.118Z,96776.74
2018-08-13T22:25:56.860Z,96781.88
2018-08-13T22:28:31.086Z,96781.02
2018-08-13T22:31:01.919Z,96791.39
2018-08-13T22:33:32.869Z,96787.98
2018-08-13T22:36:04.738Z,96792.91
2018-08-13T22:38:35.947Z,96791.34
2018-08-13T22:41:07.921Z,96796.66
2018-08-13T22:43:38.941Z,96798.85
2018-08-13T22:46:12.396Z,96803.98
2018-08-13T22:48:43.998Z,96806.67
2018-08-13T22:51:19.836Z,96805.75
2018-08-13T22:53:51.615Z,96812.69
2018-08-13T22:56:23.925Z,96816.02
2018-08-13T22:58:55.245Z,96814.24
2018-08-13T23:01:29.020Z,96806.03
2018-08-13T23:04:04.974Z,96813.33
2018-08-13T23:06:38.356Z,96813.57
2018-08-13T23:09:16.945Z,96813.97
2018-08-13T23:11:52.472Z,96808.69
2018-08-13T23:14:25.927Z,96814.75
2018-08-13T23:17:02.820Z,96822.09
2018-08-13T23:19:35.033Z,96823.22
2018-08-13T23:22:08.132Z,96822.09
2018-08-13T23:24:38.908Z,96824.16
2018-08-13T23:27:10.816Z,96825.98
2018-08-13T23:29:42.940Z,96822.48
2018-08-13T23:32:15.868Z,96819.96
2018-08-13T23:34:49.780Z,96820.04
2018-08-13T23:37:23.186Z,96825.41
2018-08-13T23:39:54.092Z,96815.95
2018-08-13T23:42:31.180Z,96819.28
2018-08-13T23:45:03.227Z,96820.73
2018-08-13T23:47:34.532Z,96818.72
2018-08-13T23:50:08.766Z,96821.66
2018-08-13T23:52:43.500Z,96825.14
2018-08-13T23:55:21.551Z,96821.34
2018-08-13T23:57:53.285Z,96828.45
